createdAt,value
2017-12-14T00:00:00.880Z,776.26
2017-12-14T00:00:05.143Z,776.29
2017-12-14T00:00:09.391Z,776.3
2017-12-14T00:00:13.727Z,776.32
2017-12-14T00:00:17.776Z,776.35
2017-12-14T00:00:21.793Z,776.35
2017-12-14T00:00:25.921Z,776.33
2017-12-14T00:00:30.053Z,776.33
2017-12-14T00:00:34.290Z,776.37
2017-12-14T00:00:38.423Z,776.37
2017-12-14T00:00:42.556Z,776.33
2017-12-14T00:00:46.902Z,776.35
2017-12-14T00:00:51.252Z,776.36
2017-12-14T00:00:55.383Z,776.35
2017-12-14T00:00:59.528Z,776.34
2017-12-14T00:01:03.770Z,776.34
2017-12-14T00:01:07.927Z,776.31
2017-12-14T00:01:12.074Z,776.35
2017-12-14T00:01:16.209Z,776.35
2017-12-14T00:01:20.351Z,776.34
2017-12-14T00:01:24.715Z,776.36
2017-12-14T00:01:28.747Z,776.35
2017-12-14T00:01:32.979Z,776.36
2017-12-14T00:01:36.904Z,776.33
2017-12-14T00:01:40.926Z,776.37
2017-12-14T00:01:45.072Z,776.35
2017-12-14T00:01:49.429Z,776.36
2017-12-14T00:01:53.248Z,776.34
2017-12-14T00:01:57.179Z,776.34
2017-12-14T00:02:01.411Z,776.29
2017-12-14T00:02:05.442Z,776.26
2017-12-14T00:02:09.481Z,776.25
2017-12-14T00:02:13.627Z,776.3
2017-12-14T00:02:17.980Z,776.28
2017-12-14T00:02:22.110Z,776.35
2017-12-14T00:02:26.347Z,776.34
2017-12-14T00:02:30.591Z,776.31
2017-12-14T00:02:34.936Z,776.32
2017-12-14T00:02:39.191Z,776.31
2017-12-14T00:02:43.431Z,776.34
2017-12-14T00:02:47.766Z,776.29
2017-12-14T00:02:52.014Z,776.3
2017-12-14T00:02:56.144Z,776.32
2017-12-14T00:03:00.397Z,776.32
2017-12-14T00:03:04.620Z,776.29
2017-12-14T00:03:08.959Z,776.3
2017-12-14T00:03:12.989Z,776.27
2017-12-14T00:03:17.244Z,776.26
2017-12-14T00:03:21.318Z,776.26
2017-12-14T00:03:25.719Z,776.27
2017-12-14T00:03:29.961Z,776.25
2017-12-14T00:03:34.093Z,776.28
2017-12-14T00:03:38.323Z,776.27
2017-12-14T00:03:42.573Z,776.31
2017-12-14T00:03:46.923Z,776.3
2017-12-14T00:03:51.066Z,776.28
2017-12-14T00:03:55.189Z,776.3
2017-12-14T00:03:59.230Z,776.31
2017-12-14T00:04:03.482Z,776.29
2017-12-14T00:04:07.719Z,776.27
2017-12-14T00:04:11.965Z,776.27
2017-12-14T00:04:16.226Z,776.25
2017-12-14T00:04:20.581Z,776.29
2017-12-14T00:04:24.609Z,776.3
2017-12-14T00:04:28.959Z,776.29
2017-12-14T00:04:33.089Z,776.28
2017-12-14T00:04:37.231Z,776.29
2017-12-14T00:04:41.490Z,776.27
2017-12-14T00:04:45.516Z,776.3
2017-12-14T00:04:49.754Z,776.29
2017-12-14T00:04:53.888Z,776.29
2017-12-14T00:04:58.126Z,776.27
2017-12-14T00:05:02.429Z,776.29
2017-12-14T00:05:06.556Z,776.24
2017-12-14T00:05:10.686Z,776.27
2017-12-14T00:05:15.023Z,776.24
2017-12-14T00:05:19.262Z,776.26
2017-12-14T00:05:23.504Z,776.25
2017-12-14T00:05:27.653Z,776.23
2017-12-14T00:05:31.772Z,776.26
2017-12-14T00:05:35.961Z,776.25
2017-12-14T00:05:40.097Z,776.26
2017-12-14T00:05:44.448Z,776.27
2017-12-14T00:05:48.701Z,776.21
2017-12-14T00:05:52.949Z,776.26
2017-12-14T00:05:57.199Z,776.22
2017-12-14T00:06:01.453Z,776.23
2017-12-14T00:06:05.397Z,776.22
2017-12-14T00:06:09.307Z,776.25
2017-12-14T00:06:13.542Z,776.21
2017-12-14T00:06:17.777Z,776.22
2017-12-14T00:06:21.908Z,776.2
2017-12-14T00:06:26.248Z,776.26
2017-12-14T00:06:30.261Z,776.24
2017-12-14T00:06:34.408Z,776.24
2017-12-14T00:06:38.549Z,776.24
2017-12-14T00:06:42.687Z,776.22
2017-12-14T00:06:46.916Z,776.22
2017-12-14T00:06:50.935Z,776.24
2017-12-14T00:06:54.963Z,776.2
2017-12-14T00:06:59.085Z,776.19
2017-12-14T00:07:03.352Z,776.23
2017-12-14T00:07:07.595Z,776.2
2017-12-14T00:07:11.733Z,776.21
2017-12-14T00:07:15.878Z,776.18
2017-12-14T00:07:20.108Z,776.21
2017-12-14T00:07:24.250Z,776.19
2017-12-14T00:07:28.398Z,776.15
2017-12-14T00:07:32.532Z,776.19
2017-12-14T00:07:36.770Z,776.16
2017-12-14T00:07:41.016Z,776.12
2017-12-14T00:07:45.374Z,776.13
2017-12-14T00:07:49.505Z,776.19
2017-12-14T00:07:53.755Z,776.14
2017-12-14T00:07:57.696Z,776.14
2017-12-14T00:08:01.526Z,776.15
2017-12-14T00:08:05.660Z,776.17
2017-12-14T00:08:09.689Z,776.17
2017-12-14T00:08:13.945Z,776.16
2017-12-14T00:08:17.978Z,776.15
2017-12-14T00:08:22.220Z,776.11
2017-12-14T00:08:26.581Z,776.13
2017-12-14T00:08:30.829Z,776.15
2017-12-14T00:08:34.859Z,776.16
2017-12-14T00:08:39.124Z,776.15
2017-12-14T00:08:43.260Z,776.16
2017-12-14T00:08:47.394Z,776.08
2017-12-14T00:08:51.644Z,776.12
2017-12-14T00:08:55.986Z,776.15
2017-12-14T00:09:00.220Z,776.11
2017-12-14T00:09:04.726Z,776.1
2017-12-14T00:09:08.970Z,776.14
2017-12-14T00:09:13.102Z,776.11
2017-12-14T00:09:17.353Z,776.09
2017-12-14T00:09:21.580Z,776.11
2017-12-14T00:09:25.502Z,776.09
2017-12-14T00:09:29.752Z,776.11
2017-12-14T00:09:34.116Z,776.08
2017-12-14T00:09:38.463Z,776.04
2017-12-14T00:09:42.501Z,776.03
2017-12-14T00:09:46.852Z,776.02
2017-12-14T00:09:51.202Z,776.09
2017-12-14T00:09:55.546Z,776.06
2017-12-14T00:09:59.580Z,776.05
2017-12-14T00:10:03.829Z,776.05
2017-12-14T00:10:08.172Z,776.02
2017-12-14T00:10:12.321Z,776.04
2017-12-14T00:10:16.442Z,776.01
2017-12-14T00:10:20.700Z,775.99
2017-12-14T00:10:25.058Z,775.97
2017-12-14T00:10:29.187Z,775.94
2017-12-14T00:10:33.429Z,775.96
2017-12-14T00:10:37.673Z,775.97
2017-12-14T00:10:41.912Z,775.95
2017-12-14T00:10:46.159Z,775.93
2017-12-14T00:10:50.287Z,775.97
2017-12-14T00:10:54.423Z,775.91
2017-12-14T00:10:58.668Z,775.92
2017-12-14T00:11:02.810Z,775.92
2017-12-14T00:11:07.169Z,775.89
2017-12-14T00:11:11.303Z,775.86
2017-12-14T00:11:15.534Z,775.89
2017-12-14T00:11:19.886Z,775.86
2017-12-14T00:11:23.965Z,775.86
2017-12-14T00:11:28.315Z,775.85
2017-12-14T00:11:32.462Z,775.82
2017-12-14T00:11:36.596Z,775.84
2017-12-14T00:11:40.517Z,775.81
2017-12-14T00:11:44.549Z,775.8
2017-12-14T00:11:48.803Z,775.83
2017-12-14T00:11:52.737Z,775.83
2017-12-14T00:11:56.922Z,775.83
2017-12-14T00:12:01.260Z,775.77
2017-12-14T00:12:05.550Z,775.78
2017-12-14T00:12:09.695Z,775.8
2017-12-14T00:12:13.615Z,775.74
2017-12-14T00:12:17.748Z,775.73
2017-12-14T00:12:21.886Z,775.73
2017-12-14T00:12:26.121Z,775.73
2017-12-14T00:12:30.378Z,775.74
2017-12-14T00:12:34.505Z,775.75
2017-12-14T00:12:38.537Z,775.7
2017-12-14T00:12:42.667Z,775.68
2017-12-14T00:12:47.006Z,775.69
2017-12-14T00:12:51.140Z,775.71
2017-12-14T00:12:55.501Z,775.67
2017-12-14T00:12:59.531Z,775.66
2017-12-14T00:13:03.657Z,775.64
2017-12-14T00:13:07.800Z,775.64
2017-12-14T00:13:12.040Z,775.65
2017-12-14T00:13:16.281Z,775.64
2017-12-14T00:13:20.417Z,775.63
2017-12-14T00:13:24.541Z,775.64
2017-12-14T00:13:28.886Z,775.63
2017-12-14T00:13:33.036Z,775.61
2017-12-14T00:13:37.378Z,775.58
2017-12-14T00:13:41.751Z,775.6
2017-12-14T00:13:46.011Z,775.57
2017-12-14T00:13:50.364Z,775.56
2017-12-14T00:13:54.654Z,775.52
2017-12-14T00:13:58.908Z,775.53
2017-12-14T00:14:03.146Z,775.57
2017-12-14T00:14:07.394Z,775.56
2017-12-14T00:14:11.417Z,775.55
2017-12-14T00:14:15.572Z,775.5
2017-12-14T00:14:19.804Z,775.54
2017-12-14T00:14:24.005Z,775.53
2017-12-14T00:14:28.241Z,775.52
2017-12-14T00:14:32.492Z,775.54
2017-12-14T00:14:36.846Z,775.51
2017-12-14T00:14:41.109Z,775.52
2017-12-14T00:14:45.404Z,775.49
2017-12-14T00:14:49.650Z,775.49
2017-12-14T00:14:53.876Z,775.49
2017-12-14T00:14:57.897Z,775.51
2017-12-14T00:15:02.130Z,775.47
2017-12-14T00:15:06.264Z,775.5
2017-12-14T00:15:10.294Z,775.48
2017-12-14T00:15:14.422Z,775.47
2017-12-14T00:15:18.566Z,775.49
2017-12-14T00:15:22.593Z,775.44
2017-12-14T00:15:26.938Z,775.48
2017-12-14T00:15:31.070Z,775.47
2017-12-14T00:15:35.319Z,775.43
2017-12-14T00:15:39.573Z,775.44
2017-12-14T00:15:43.819Z,775.42
2017-12-14T00:15:48.051Z,775.44
2017-12-14T00:15:52.072Z,775.41
2017-12-14T00:15:56.446Z,775.46
2017-12-14T00:16:00.695Z,775.42
2017-12-14T00:16:04.619Z,775.42
2017-12-14T00:16:08.320Z,775.44
2017-12-14T00:16:12.552Z,775.45
2017-12-14T00:16:16.582Z,775.46
2017-12-14T00:16:20.619Z,775.36
2017-12-14T00:16:24.764Z,775.35
2017-12-14T00:16:29.144Z,775.35
2017-12-14T00:16:33.385Z,775.41
2017-12-14T00:16:37.733Z,775.45
2017-12-14T00:16:41.666Z,775.41
2017-12-14T00:16:45.810Z,775.4
2017-12-14T00:16:50.152Z,775.35
2017-12-14T00:16:54.286Z,775.4
2017-12-14T00:16:58.527Z,775.35
2017-12-14T00:17:03.071Z,775.38
2017-12-14T00:17:06.991Z,775.34
2017-12-14T00:17:11.352Z,775.3
2017-12-14T00:17:15.604Z,775.29
2017-12-14T00:17:19.536Z,775.26
2017-12-14T00:17:23.563Z,775.29
2017-12-14T00:17:27.795Z,775.29
2017-12-14T00:17:31.933Z,775.31
2017-12-14T00:17:35.960Z,775.28
2017-12-14T00:17:40.087Z,775.28
2017-12-14T00:17:44.244Z,775.29
2017-12-14T00:17:48.489Z,775.29
2017-12-14T00:17:52.630Z,775.27
2017-12-14T00:17:56.885Z,775.25
2017-12-14T00:18:01.032Z,775.28
2017-12-14T00:18:05.280Z,775.28
2017-12-14T00:18:09.311Z,775.25
2017-12-14T00:18:13.352Z,775.27
2017-12-14T00:18:17.483Z,775.25
2017-12-14T00:18:21.415Z,775.26
2017-12-14T00:18:25.659Z,775.29
2017-12-14T00:18:29.805Z,775.33
2017-12-14T00:18:33.933Z,775.28
2017-12-14T00:18:38.283Z,775.26
2017-12-14T00:18:42.530Z,775.25
2017-12-14T00:18:46.693Z,775.23
2017-12-14T00:18:50.848Z,775.2
2017-12-14T00:18:55.199Z,775.22
2017-12-14T00:18:59.112Z,775.2
2017-12-14T00:19:03.356Z,775.18
2017-12-14T00:19:07.601Z,775.25
2017-12-14T00:19:11.946Z,775.22
2017-12-14T00:19:15.755Z,775.17
2017-12-14T00:19:19.893Z,775.19
2017-12-14T00:19:23.921Z,775.15
2017-12-14T00:19:28.287Z,775.13
2017-12-14T00:19:32.521Z,775.16
2017-12-14T00:19:36.654Z,775.13
2017-12-14T00:19:40.785Z,775.11
2017-12-14T00:19:45.024Z,775.13
2017-12-14T00:19:49.365Z,775.11
2017-12-14T00:19:53.511Z,775.1
2017-12-14T00:19:57.656Z,775.08
2017-12-14T00:20:01.916Z,775.09
2017-12-14T00:20:06.169Z,775.1
2017-12-14T00:20:10.415Z,775.09
2017-12-14T00:20:14.740Z,775.07
2017-12-14T00:20:18.770Z,775.06
2017-12-14T00:20:23.114Z,775.03
2017-12-14T00:20:27.253Z,775.04
2017-12-14T00:20:31.385Z,775.03
2017-12-14T00:20:35.738Z,775.01
2017-12-14T00:20:40.096Z,774.97
2017-12-14T00:20:44.014Z,775
2017-12-14T00:20:48.149Z,774.99
2017-12-14T00:20:52.288Z,774.97
2017-12-14T00:20:56.542Z,774.96
2017-12-14T00:21:00.775Z,774.94
2017-12-14T00:21:05.228Z,774.95
2017-12-14T00:21:09.291Z,774.93
2017-12-14T00:21:13.535Z,774.88
2017-12-14T00:21:17.660Z,774.87
2017-12-14T00:21:21.999Z,774.87
2017-12-14T00:21:26.239Z,774.88
2017-12-14T00:21:30.296Z,774.91
2017-12-14T00:21:34.534Z,774.91
2017-12-14T00:21:38.782Z,774.87
2017-12-14T00:21:42.924Z,774.93
2017-12-14T00:21:47.177Z,774.88
2017-12-14T00:21:51.427Z,774.92
2017-12-14T00:21:55.449Z,774.88
2017-12-14T00:21:59.711Z,774.85
2017-12-14T00:22:04.106Z,774.86
2017-12-14T00:22:08.225Z,774.85
2017-12-14T00:22:12.596Z,774.87
2017-12-14T00:22:16.846Z,774.84
2017-12-14T00:22:20.888Z,774.79
2017-12-14T00:22:25.138Z,774.82
2017-12-14T00:22:29.387Z,774.81
2017-12-14T00:22:33.631Z,774.8
2017-12-14T00:22:37.873Z,774.77
2017-12-14T00:22:42.129Z,774.79
2017-12-14T00:22:46.364Z,774.81
2017-12-14T00:22:50.668Z,774.74
2017-12-14T00:22:54.909Z,774.78
2017-12-14T00:22:59.154Z,774.77
2017-12-14T00:23:03.489Z,774.78
2017-12-14T00:23:07.619Z,774.73
2017-12-14T00:23:11.770Z,774.69
2017-12-14T00:23:15.997Z,774.72
2017-12-14T00:23:20.148Z,774.72
2017-12-14T00:23:24.285Z,774.74
2017-12-14T00:23:28.419Z,774.77
2017-12-14T00:23:32.563Z,774.74
2017-12-14T00:23:36.805Z,774.73
2017-12-14T00:23:40.954Z,774.68
2017-12-14T00:23:45.091Z,774.67
2017-12-14T00:23:49.236Z,774.68
2017-12-14T00:23:53.592Z,774.66
2017-12-14T00:23:57.740Z,774.67
2017-12-14T00:24:01.967Z,774.7
2017-12-14T00:24:06.206Z,774.71
2017-12-14T00:24:10.448Z,774.68
2017-12-14T00:24:14.463Z,774.65
2017-12-14T00:24:18.599Z,774.7
2017-12-14T00:24:22.837Z,774.64
2017-12-14T00:24:26.969Z,774.69
2017-12-14T00:24:31.102Z,774.68
2017-12-14T00:24:35.338Z,774.63
2017-12-14T00:24:39.587Z,774.63
2017-12-14T00:24:43.621Z,774.62
2017-12-14T00:24:47.758Z,774.66
2017-12-14T00:24:51.801Z,774.59
2017-12-14T00:24:56.043Z,774.6
2017-12-14T00:25:00.300Z,774.63
2017-12-14T00:25:04.664Z,774.58
2017-12-14T00:25:08.789Z,774.61
2017-12-14T00:25:13.050Z,774.57
2017-12-14T00:25:16.982Z,774.59
2017-12-14T00:25:21.232Z,774.56
2017-12-14T00:25:25.487Z,774.55
2017-12-14T00:25:29.724Z,774.59
2017-12-14T00:25:34.066Z,774.6
2017-12-14T00:25:38.269Z,774.56
2017-12-14T00:25:42.519Z,774.6
2017-12-14T00:25:46.773Z,774.59
2017-12-14T00:25:51.121Z,774.57
2017-12-14T00:25:55.361Z,774.57
2017-12-14T00:25:59.612Z,774.61
2017-12-14T00:26:04.114Z,774.6
2017-12-14T00:26:08.253Z,774.61
2017-12-14T00:26:12.484Z,774.6
2017-12-14T00:26:16.629Z,774.59
2017-12-14T00:26:20.880Z,774.59
2017-12-14T00:26:24.901Z,774.58
2017-12-14T00:26:29.248Z,774.58
2017-12-14T00:26:33.492Z,774.56
2017-12-14T00:26:37.729Z,774.58
2017-12-14T00:26:41.661Z,774.57
2017-12-14T00:26:45.792Z,774.58
2017-12-14T00:26:50.031Z,774.56
2017-12-14T00:26:54.165Z,774.58
2017-12-14T00:26:58.305Z,774.6
2017-12-14T00:27:02.549Z,774.61
2017-12-14T00:27:06.582Z,774.58
2017-12-14T00:27:10.724Z,774.55
2017-12-14T00:27:14.648Z,774.56
2017-12-14T00:27:18.670Z,774.54
2017-12-14T00:27:22.701Z,774.57
2017-12-14T00:27:26.726Z,774.58
2017-12-14T00:27:30.760Z,774.6
2017-12-14T00:27:34.902Z,774.57
2017-12-14T00:27:39.259Z,774.55
2017-12-14T00:27:43.615Z,774.56
2017-12-14T00:27:47.757Z,774.5
2017-12-14T00:27:52.008Z,774.52
2017-12-14T00:27:56.259Z,774.54
2017-12-14T00:28:00.502Z,774.55
2017-12-14T00:28:04.632Z,774.51
2017-12-14T00:28:08.677Z,774.5
2017-12-14T00:28:13.022Z,774.52
2017-12-14T00:28:17.398Z,774.49
2017-12-14T00:28:21.462Z,774.5
2017-12-14T00:28:25.592Z,774.49
2017-12-14T00:28:29.727Z,774.49
2017-12-14T00:28:33.865Z,774.49
2017-12-14T00:28:38.014Z,774.49
2017-12-14T00:28:42.250Z,774.48
2017-12-14T00:28:46.292Z,774.5
2017-12-14T00:28:50.528Z,774.47
2017-12-14T00:28:54.606Z,774.47
2017-12-14T00:28:58.915Z,774.46
2017-12-14T00:29:03.324Z,774.48
2017-12-14T00:29:07.686Z,774.48
2017-12-14T00:29:11.708Z,774.47
2017-12-14T00:29:15.836Z,774.43
2017-12-14T00:29:20.095Z,774.46
2017-12-14T00:29:24.124Z,774.44
2017-12-14T00:29:28.361Z,774.42
2017-12-14T00:29:32.710Z,774.45
2017-12-14T00:29:36.951Z,774.41
2017-12-14T00:29:40.876Z,774.37
2017-12-14T00:29:45.021Z,774.4
2017-12-14T00:29:49.268Z,774.41
2017-12-14T00:29:53.620Z,774.41
2017-12-14T00:29:57.969Z,774.41
2017-12-14T00:30:02.470Z,774.38
2017-12-14T00:30:06.500Z,774.4
2017-12-14T00:30:10.842Z,774.36
2017-12-14T00:30:15.088Z,774.36
2017-12-14T00:30:18.997Z,774.38
2017-12-14T00:30:23.229Z,774.39
2017-12-14T00:30:27.140Z,774.36
2017-12-14T00:30:31.399Z,774.36
2017-12-14T00:30:35.649Z,774.35
2017-12-14T00:30:39.796Z,774.37
2017-12-14T00:30:44.042Z,774.34
2017-12-14T00:30:48.171Z,774.36
2017-12-14T00:30:52.419Z,774.29
2017-12-14T00:30:56.330Z,774.31
2017-12-14T00:31:00.639Z,774.32
2017-12-14T00:31:04.882Z,774.31
2017-12-14T00:31:08.917Z,774.3
2017-12-14T00:31:12.947Z,774.33
2017-12-14T00:31:17.312Z,774.32
2017-12-14T00:31:21.559Z,774.36
2017-12-14T00:31:25.795Z,774.32
2017-12-14T00:31:29.927Z,774.35
2017-12-14T00:31:34.302Z,774.32
2017-12-14T00:31:38.444Z,774.36
2017-12-14T00:31:42.585Z,774.35
2017-12-14T00:31:46.874Z,774.36
2017-12-14T00:31:51.018Z,774.34
2017-12-14T00:31:55.254Z,774.34
2017-12-14T00:31:59.600Z,774.34
2017-12-14T00:32:03.751Z,774.36
2017-12-14T00:32:08.102Z,774.37
2017-12-14T00:32:12.252Z,774.33
2017-12-14T00:32:16.485Z,774.37
2017-12-14T00:32:20.512Z,774.35
2017-12-14T00:32:24.655Z,774.35
2017-12-14T00:32:28.573Z,774.31
2017-12-14T00:32:32.930Z,774.33
2017-12-14T00:32:37.177Z,774.3
2017-12-14T00:32:41.425Z,774.35
2017-12-14T00:32:45.458Z,774.34
2017-12-14T00:32:49.591Z,774.33
2017-12-14T00:32:53.619Z,774.34
2017-12-14T00:32:57.862Z,774.34
2017-12-14T00:33:02.107Z,774.33
2017-12-14T00:33:06.037Z,774.33
2017-12-14T00:33:10.378Z,774.35
2017-12-14T00:33:14.620Z,774.37
2017-12-14T00:33:18.639Z,774.34
2017-12-14T00:33:22.767Z,774.32
2017-12-14T00:33:27.006Z,774.32
2017-12-14T00:33:31.134Z,774.36
2017-12-14T00:33:35.387Z,774.37
2017-12-14T00:33:39.576Z,774.34
2017-12-14T00:33:43.612Z,774.34
2017-12-14T00:33:47.875Z,774.38
2017-12-14T00:33:52.277Z,774.35
2017-12-14T00:33:56.213Z,774.34
2017-12-14T00:34:00.151Z,774.4
2017-12-14T00:34:04.280Z,774.4
2017-12-14T00:34:08.302Z,774.41
2017-12-14T00:34:12.540Z,774.41
2017-12-14T00:34:16.770Z,774.39
2017-12-14T00:34:20.913Z,774.4
2017-12-14T00:34:25.007Z,774.37
2017-12-14T00:34:28.939Z,774.39
2017-12-14T00:34:33.198Z,774.39
2017-12-14T00:34:37.567Z,774.39
2017-12-14T00:34:41.854Z,774.41
2017-12-14T00:34:46.091Z,774.39
2017-12-14T00:34:50.235Z,774.36
2017-12-14T00:34:54.580Z,774.37
2017-12-14T00:34:58.832Z,774.35
2017-12-14T00:35:03.069Z,774.4
2017-12-14T00:35:07.305Z,774.37
2017-12-14T00:35:11.664Z,774.37
2017-12-14T00:35:15.796Z,774.34
2017-12-14T00:35:20.043Z,774.34
2017-12-14T00:35:24.185Z,774.39
2017-12-14T00:35:28.537Z,774.37
2017-12-14T00:35:32.455Z,774.33
2017-12-14T00:35:36.593Z,774.35
2017-12-14T00:35:40.825Z,774.34
2017-12-14T00:35:44.849Z,774.33
2017-12-14T00:35:48.994Z,774.33
2017-12-14T00:35:53.229Z,774.32
2017-12-14T00:35:57.579Z,774.29
2017-12-14T00:36:01.919Z,774.31
2017-12-14T00:36:06.166Z,774.31
2017-12-14T00:36:10.505Z,774.31
2017-12-14T00:36:14.632Z,774.32
2017-12-14T00:36:18.762Z,774.31
2017-12-14T00:36:22.894Z,774.31
2017-12-14T00:36:27.137Z,774.29
2017-12-14T00:36:31.047Z,774.3
2017-12-14T00:36:35.293Z,774.29
2017-12-14T00:36:39.232Z,774.3
2017-12-14T00:36:43.369Z,774.29
2017-12-14T00:36:47.399Z,774.29
2017-12-14T00:36:51.746Z,774.3
2017-12-14T00:36:56.003Z,774.31
2017-12-14T00:37:00.244Z,774.31
2017-12-14T00:37:04.585Z,774.32
2017-12-14T00:37:08.611Z,774.3
2017-12-14T00:37:12.763Z,774.31
2017-12-14T00:37:16.878Z,774.32
2017-12-14T00:37:21.126Z,774.31
2017-12-14T00:37:25.385Z,774.28
2017-12-14T00:37:29.514Z,774.25
2017-12-14T00:37:33.638Z,774.28
2017-12-14T00:37:37.890Z,774.31
2017-12-14T00:37:42.125Z,774.27
2017-12-14T00:37:46.161Z,774.24
2017-12-14T00:37:50.393Z,774.25
2017-12-14T00:37:54.315Z,774.29
2017-12-14T00:37:58.557Z,774.29
2017-12-14T00:38:02.968Z,774.27
2017-12-14T00:38:07.202Z,774.3
2017-12-14T00:38:11.227Z,774.28
2017-12-14T00:38:15.260Z,774.32
2017-12-14T00:38:19.393Z,774.32
2017-12-14T00:38:23.525Z,774.28
2017-12-14T00:38:27.891Z,774.33
2017-12-14T00:38:32.228Z,774.27
2017-12-14T00:38:36.367Z,774.28
2017-12-14T00:38:40.602Z,774.27
2017-12-14T00:38:44.623Z,774.28
2017-12-14T00:38:48.760Z,774.3
2017-12-14T00:38:52.868Z,774.3
2017-12-14T00:38:57.113Z,774.28
2017-12-14T00:39:01.255Z,774.29
2017-12-14T00:39:05.595Z,774.26
2017-12-14T00:39:09.749Z,774.27
2017-12-14T00:39:14.160Z,774.28
2017-12-14T00:39:18.078Z,774.29
2017-12-14T00:39:22.111Z,774.24
2017-12-14T00:39:26.464Z,774.25
2017-12-14T00:39:30.597Z,774.25
2017-12-14T00:39:34.626Z,774.24
2017-12-14T00:39:38.665Z,774.27
2017-12-14T00:39:43.013Z,774.21
2017-12-14T00:39:47.261Z,774.22
2017-12-14T00:39:51.404Z,774.21
2017-12-14T00:39:55.647Z,774.22
2017-12-14T00:39:59.886Z,774.23
2017-12-14T00:40:04.286Z,774.23
2017-12-14T00:40:08.527Z,774.2
2017-12-14T00:40:12.671Z,774.2
2017-12-14T00:40:16.966Z,774.25
2017-12-14T00:40:21.003Z,774.2
2017-12-14T00:40:25.155Z,774.23
2017-12-14T00:40:29.299Z,774.22
2017-12-14T00:40:33.338Z,774.22
2017-12-14T00:40:37.477Z,774.22
2017-12-14T00:40:41.508Z,774.21
2017-12-14T00:40:45.762Z,774.21
2017-12-14T00:40:49.785Z,774.21
2017-12-14T00:40:53.816Z,774.22
2017-12-14T00:40:58.043Z,774.23
2017-12-14T00:41:02.432Z,774.23
2017-12-14T00:41:06.678Z,774.23
2017-12-14T00:41:10.818Z,774.22
2017-12-14T00:41:14.963Z,774.21
2017-12-14T00:41:19.095Z,774.23
2017-12-14T00:41:23.331Z,774.22
2017-12-14T00:41:27.666Z,774.22
2017-12-14T00:41:31.583Z,774.23
2017-12-14T00:41:35.824Z,774.22
2017-12-14T00:41:39.851Z,774.24
2017-12-14T00:41:44.095Z,774.2
2017-12-14T00:41:48.354Z,774.2
2017-12-14T00:41:52.620Z,774.21
2017-12-14T00:41:56.880Z,774.2
2017-12-14T00:42:01.016Z,774.2
2017-12-14T00:42:05.731Z,774.2
2017-12-14T00:42:09.675Z,774.19
2017-12-14T00:42:13.919Z,774.18
2017-12-14T00:42:18.161Z,774.17
2017-12-14T00:42:22.405Z,774.19
2017-12-14T00:42:26.664Z,774.17
2017-12-14T00:42:30.799Z,774.18
2017-12-14T00:42:34.940Z,774.19
2017-12-14T00:42:38.958Z,774.19
2017-12-14T00:42:43.264Z,774.2
2017-12-14T00:42:47.624Z,774.16
2017-12-14T00:42:51.758Z,774.15
2017-12-14T00:42:56.094Z,774.11
2017-12-14T00:43:00.445Z,774.15
2017-12-14T00:43:04.975Z,774.14
2017-12-14T00:43:09.303Z,774.11
2017-12-14T00:43:13.447Z,774.12
2017-12-14T00:43:17.685Z,774.12
2017-12-14T00:43:21.807Z,774.14
2017-12-14T00:43:26.043Z,774.12
2017-12-14T00:43:30.180Z,774.11
2017-12-14T00:43:34.310Z,774.11
2017-12-14T00:43:38.328Z,774.12
2017-12-14T00:43:42.348Z,774.12
2017-12-14T00:43:46.581Z,774.12
2017-12-14T00:43:50.921Z,774.1
2017-12-14T00:43:55.162Z,774.09
2017-12-14T00:43:59.184Z,774.13
2017-12-14T00:44:03.319Z,774.05
2017-12-14T00:44:07.688Z,774.07
2017-12-14T00:44:11.716Z,774.07
2017-12-14T00:44:15.944Z,774.04
2017-12-14T00:44:19.979Z,774.04
2017-12-14T00:44:24.089Z,774.06
2017-12-14T00:44:28.225Z,774.04
2017-12-14T00:44:32.575Z,774.02
2017-12-14T00:44:36.705Z,774.04
2017-12-14T00:44:40.850Z,774.05
2017-12-14T00:44:45.004Z,774.01
2017-12-14T00:44:49.257Z,774.01
2017-12-14T00:44:53.399Z,774.03
2017-12-14T00:44:57.749Z,774
2017-12-14T00:45:02.104Z,773.99
2017-12-14T00:45:06.130Z,773.98
2017-12-14T00:45:10.380Z,773.97
2017-12-14T00:45:14.505Z,774
2017-12-14T00:45:18.641Z,773.99
2017-12-14T00:45:22.803Z,773.96
2017-12-14T00:45:27.165Z,773.99
2017-12-14T00:45:31.312Z,773.96
2017-12-14T00:45:35.561Z,773.98
2017-12-14T00:45:39.914Z,773.96
2017-12-14T00:45:43.734Z,773.96
2017-12-14T00:45:48.064Z,773.95
2017-12-14T00:45:52.405Z,773.96
2017-12-14T00:45:56.763Z,773.94
2017-12-14T00:46:01.000Z,773.95
2017-12-14T00:46:05.233Z,773.94
2017-12-14T00:46:09.263Z,773.93
2017-12-14T00:46:13.300Z,773.91
2017-12-14T00:46:17.653Z,773.94
2017-12-14T00:46:22.031Z,773.93
2017-12-14T00:46:26.174Z,773.92
2017-12-14T00:46:30.317Z,773.89
2017-12-14T00:46:34.362Z,773.94
2017-12-14T00:46:38.704Z,773.9
2017-12-14T00:46:42.839Z,773.9
2017-12-14T00:46:46.971Z,773.88
2017-12-14T00:46:51.099Z,773.91
2017-12-14T00:46:55.438Z,773.89
2017-12-14T00:46:59.685Z,773.88
2017-12-14T00:47:03.917Z,773.89
2017-12-14T00:47:08.141Z,773.88
2017-12-14T00:47:12.550Z,773.87
2017-12-14T00:47:16.799Z,773.9
2017-12-14T00:47:21.175Z,773.88
2017-12-14T00:47:25.301Z,773.9
2017-12-14T00:47:29.658Z,773.91
2017-12-14T00:47:33.915Z,773.9
2017-12-14T00:47:38.073Z,773.89
2017-12-14T00:47:42.216Z,773.88
2017-12-14T00:47:46.342Z,773.89
2017-12-14T00:47:50.371Z,773.92
2017-12-14T00:47:54.493Z,773.91
2017-12-14T00:47:58.737Z,773.88
2017-12-14T00:48:02.973Z,773.87
2017-12-14T00:48:07.106Z,773.89
2017-12-14T00:48:11.246Z,773.87
2017-12-14T00:48:15.228Z,773.86
2017-12-14T00:48:19.385Z,773.85
2017-12-14T00:48:23.411Z,773.84
2017-12-14T00:48:27.444Z,773.84
2017-12-14T00:48:31.684Z,773.87
2017-12-14T00:48:35.932Z,773.86
2017-12-14T00:48:40.168Z,773.83
2017-12-14T00:48:44.095Z,773.84
2017-12-14T00:48:48.330Z,773.82
2017-12-14T00:48:52.581Z,773.83
2017-12-14T00:48:56.713Z,773.83
2017-12-14T00:49:01.044Z,773.85
2017-12-14T00:49:05.449Z,773.86
2017-12-14T00:49:09.588Z,773.86
2017-12-14T00:49:13.715Z,773.86
2017-12-14T00:49:17.949Z,773.86
2017-12-14T00:49:22.082Z,773.9
2017-12-14T00:49:26.211Z,773.87
2017-12-14T00:49:30.340Z,773.9
2017-12-14T00:49:34.480Z,773.89
2017-12-14T00:49:38.758Z,773.9
2017-12-14T00:49:42.786Z,773.88
2017-12-14T00:49:46.938Z,773.87
2017-12-14T00:49:51.064Z,773.87
2017-12-14T00:49:55.204Z,773.87
2017-12-14T00:49:59.345Z,773.91
2017-12-14T00:50:03.787Z,773.9
2017-12-14T00:50:08.028Z,773.89
2017-12-14T00:50:12.271Z,773.87
2017-12-14T00:50:16.520Z,773.86
2017-12-14T00:50:20.541Z,773.87
2017-12-14T00:50:24.783Z,773.9
2017-12-14T00:50:29.141Z,773.84
2017-12-14T00:50:33.281Z,773.84
2017-12-14T00:50:37.639Z,773.86
2017-12-14T00:50:41.888Z,773.85
2017-12-14T00:50:46.170Z,773.86
2017-12-14T00:50:50.238Z,773.83
2017-12-14T00:50:54.611Z,773.79
2017-12-14T00:50:59.027Z,773.82
2017-12-14T00:51:03.199Z,773.83
2017-12-14T00:51:07.439Z,773.81
2017-12-14T00:51:11.678Z,773.85
2017-12-14T00:51:15.934Z,773.83
2017-12-14T00:51:20.174Z,773.83
2017-12-14T00:51:24.103Z,773.81
2017-12-14T00:51:28.458Z,773.84
2017-12-14T00:51:32.656Z,773.81
2017-12-14T00:51:36.895Z,773.83
2017-12-14T00:51:41.033Z,773.83
2017-12-14T00:51:45.058Z,773.78
2017-12-14T00:51:49.302Z,773.82
2017-12-14T00:51:53.324Z,773.78
2017-12-14T00:51:57.588Z,773.81
2017-12-14T00:52:01.523Z,773.82
2017-12-14T00:52:05.670Z,773.83
2017-12-14T00:52:09.908Z,773.78
2017-12-14T00:52:13.953Z,773.76
2017-12-14T00:52:18.112Z,773.79
2017-12-14T00:52:22.351Z,773.8
2017-12-14T00:52:26.516Z,773.8